Time;durP1;ratioP1;P1;durP2;ratioP2;P2;SDS_P1;SDS_P2;PMS_P1;PMS_P2;Temp;Humidity;BMP_temperature;BMP_pressure;BME280_temperature;BME280_humidity;BME280_pressure;Samples;Min_cycle;Max_cycle;Signal;HPM_P1;HPM_P2
2022/06/30 00:00:48;;;;;;;5.07;4.03;;;20.40;99.90;;;;;;5025954;28;20026;-76
2022/06/30 00:03:14;;;;;;;5.47;4.32;;;20.40;99.90;;;;;;5031162;28;20644;-76
2022/06/30 00:05:41;;;;;;;6.13;4.78;;;20.40;99.90;;;;;;5014894;28;20045;-75
2022/06/30 00:08:07;;;;;;;7.43;4.15;;;20.40;99.90;;;;;;5016885;28;20034;-76
2022/06/30 00:10:33;;;;;;;8.05;4.72;;;20.30;99.90;;;;;;5035968;28;20030;-75
2022/06/30 00:13:00;;;;;;;6.30;5.25;;;20.30;99.90;;;;;;5018453;28;20045;-76
2022/06/30 00:15:26;;;;;;;5.28;4.32;;;20.20;99.90;;;;;;5015295;28;20065;-76
2022/06/30 00:17:52;;;;;;;6.97;4.60;;;20.20;99.90;;;;;;5018674;28;20041;-76
2022/06/30 00:20:20;;;;;;;5.60;5.00;;;20.20;99.90;;;;;;5024218;28;20033;-76
2022/06/30 00:22:47;;;;;;;8.40;4.80;;;20.10;99.90;;;;;;5032712;28;20471;-76
2022/06/30 00:25:13;;;;;;;6.90;4.20;;;20.20;99.90;;;;;;5028283;28;20049;-76
2022/06/30 00:27:40;;;;;;;6.13;4.63;;;20.20;99.90;;;;;;5017365;28;20037;-75
2022/06/30 00:30:07;;;;;;;5.53;4.10;;;20.10;99.90;;;;;;5027878;28;20038;-75
2022/06/30 00:32:33;;;;;;;5.85;4.07;;;20.10;99.90;;;;;;5019559;28;20391;-75
2022/06/30 00:35:01;;;;;;;6.95;4.10;;;20.10;99.90;;;;;;5016770;28;20471;-76
2022/06/30 00:37:27;;;;;;;6.25;4.40;;;20.10;99.90;;;;;;5015765;28;20046;-76
2022/06/30 00:39:53;;;;;;;4.80;4.25;;;20.10;99.90;;;;;;5015128;28;20045;-76
2022/06/30 00:42:20;;;;;;;7.28;4.60;;;20.10;99.90;;;;;;5021346;28;20030;-76
2022/06/30 00:44:46;;;;;;;5.80;4.65;;;20.10;99.90;;;;;;5031827;28;20033;-76
2022/06/30 00:47:12;;;;;;;6.00;4.88;;;20.20;99.90;;;;;;5025218;28;20034;-75
2022/06/30 00:49:38;;;;;;;7.38;4.72;;;20.30;99.90;;;;;;5023963;28;20053;-76
2022/06/30 00:52:09;;;;;;;6.60;4.65;;;20.30;99.90;;;;;;5026356;28;20067;-76
2022/06/30 00:54:38;;;;;;;6.18;3.85;;;20.50;99.90;;;;;;5035043;28;20049;-76
2022/06/30 00:57:07;;;;;;;4.50;3.58;;;20.60;99.90;;;;;;5032995;28;20034;-75
2022/06/30 00:59:33;;;;;;;4.70;3.53;;;20.60;99.90;;;;;;5022929;28;20064;-76
2022/06/30 01:02:02;;;;;;;6.13;3.60;;;20.60;99.90;;;;;;5033028;28;20041;-78
2022/06/30 01:04:32;;;;;;;5.93;4.10;;;20.60;99.90;;;;;;5017630;28;20046;-76
2022/06/30 01:07:00;;;;;;;4.88;3.45;;;20.60;99.90;;;;;;5022291;28;20037;-78
2022/06/30 01:14:58;;;;;;;6.28;3.50;;;20.50;99.90;;;;;;5031053;28;20060;-78
2022/06/30 01:17:24;;;;;;;8.27;3.75;;;20.50;99.90;;;;;;5024138;28;20041;-76
2022/06/30 01:20:00;;;;;;;5.60;3.58;;;20.40;99.90;;;;;;5019659;28;20041;-75
2022/06/30 01:22:27;;;;;;;7.43;3.35;;;20.40;99.90;;;;;;5033248;28;20036;-75
2022/06/30 01:24:53;;;;;;;7.40;3.72;;;20.40;99.90;;;;;;5031606;28;20473;-76
2022/06/30 01:27:19;;;;;;;5.43;3.70;;;20.40;99.90;;;;;;5018015;28;20476;-76
2022/06/30 01:29:46;;;;;;;5.63;3.65;;;20.40;99.90;;;;;;5024915;28;20063;-76
2022/06/30 01:32:13;;;;;;;4.50;3.42;;;20.30;99.90;;;;;;5021870;28;20041;-77
2022/06/30 01:34:39;;;;;;;5.28;3.42;;;20.30;99.90;;;;;;5032163;28;20056;-75
2022/06/30 01:37:05;;;;;;;4.13;3.10;;;20.20;99.90;;;;;;5020483;28;20537;-76
2022/06/30 01:39:32;;;;;;;6.40;3.20;;;20.20;99.90;;;;;;5018444;28;20030;-75
2022/06/30 01:41:58;;;;;;;4.88;3.35;;;20.10;99.90;;;;;;5016868;28;20064;-78
2022/06/30 01:44:24;;;;;;;5.60;3.50;;;20.10;99.90;;;;;;5017999;28;20029;-77
2022/06/30 01:46:51;;;;;;;5.53;3.22;;;20.10;99.90;;;;;;5020531;28;20430;-76
2022/06/30 01:49:17;;;;;;;4.57;3.25;;;20.10;99.90;;;;;;5017591;28;20273;-76
2022/06/30 01:51:43;;;;;;;8.77;3.53;;;20.10;99.90;;;;;;5016905;28;20379;-76
2022/06/30 01:54:10;;;;;;;5.15;3.90;;;20.10;99.90;;;;;;5014964;28;20030;-75
2022/06/30 01:56:37;;;;;;;5.78;3.97;;;20.10;99.90;;;;;;5018421;28;20041;-75
2022/06/30 01:59:04;;;;;;;5.60;3.92;;;20.00;99.90;;;;;;5012933;28;20831;-76
2022/06/30 02:01:31;;;;;;;4.78;3.58;;;20.00;99.90;;;;;;5020650;28;20034;-75
2022/06/30 02:04:46;;;;;;;6.30;4.10;;;20.00;99.90;;;;;;5018099;28;20056;-79
2022/06/30 02:06:44;;;;;;;5.18;3.78;;;20.00;99.90;;;;;;5017326;28;20038;-76
2022/06/30 02:09:10;;;;;;;4.80;3.47;;;19.90;99.90;;;;;;5018867;28;20037;-76
2022/06/30 02:11:37;;;;;;;5.93;3.45;;;19.80;99.90;;;;;;5018163;28;20518;-76
2022/06/30 02:14:03;;;;;;;5.95;4.20;;;19.80;99.90;;;;;;5025742;28;20395;-76
2022/06/30 02:16:30;;;;;;;7.07;4.32;;;19.70;99.90;;;;;;5022902;28;20050;-76
2022/06/30 02:18:57;;;;;;;6.20;4.00;;;19.70;99.90;;;;;;5014805;28;20053;-76
2022/06/30 02:21:23;;;;;;;6.22;4.32;;;19.60;99.90;;;;;;5017524;28;20033;-76
2022/06/30 02:23:51;;;;;;;8.10;4.82;;;19.50;99.90;;;;;;5015320;28;20057;-76
2022/06/30 02:26:18;;;;;;;6.57;3.28;;;19.50;99.90;;;;;;5018105;28;20048;-76
2022/06/30 02:28:44;;;;;;;4.72;3.63;;;19.50;99.90;;;;;;5023067;28;20475;-76
2022/06/30 02:31:13;;;;;;;7.07;4.32;;;19.50;99.90;;;;;;5014022;28;20052;-76
2022/06/30 02:33:40;;;;;;;5.75;4.28;;;19.40;99.90;;;;;;5023680;28;20046;-76
2022/06/30 02:36:06;;;;;;;8.38;3.80;;;19.30;99.90;;;;;;5018095;28;20037;-76
2022/06/30 02:38:33;;;;;;;5.70;4.22;;;19.10;99.90;;;;;;5020288;28;20033;-76
2022/06/30 02:41:00;;;;;;;5.10;4.03;;;18.90;99.90;;;;;;5012928;28;20041;-79
2022/06/30 02:43:26;;;;;;;6.05;4.35;;;18.70;99.90;;;;;;5013152;28;20041;-76
2022/06/30 02:45:52;;;;;;;6.25;4.28;;;18.70;99.90;;;;;;5015305;28;20041;-76
2022/06/30 02:48:18;;;;;;;4.88;4.38;;;18.60;99.90;;;;;;5014232;28;20044;-76
2022/06/30 02:50:45;;;;;;;6.60;4.82;;;18.40;99.90;;;;;;5016585;28;20038;-75
2022/06/30 02:53:12;;;;;;;11.68;4.78;;;18.30;99.90;;;;;;5012090;28;20034;-76
2022/06/30 02:55:38;;;;;;;7.22;4.45;;;18.40;99.90;;;;;;5015107;28;20038;-76
2022/06/30 02:58:04;;;;;;;8.57;4.45;;;18.30;99.90;;;;;;5018104;28;20053;-76
2022/06/30 03:00:30;;;;;;;6.45;4.75;;;18.20;99.90;;;;;;5012650;28;20033;-76
2022/06/30 03:03:00;;;;;;;9.88;5.13;;;18.20;99.90;;;;;;5042044;28;20220;-76
2022/06/30 03:05:26;;;;;;;7.53;5.05;;;18.30;99.90;;;;;;5014532;28;20045;-76
2022/06/30 03:07:52;;;;;;;7.32;4.55;;;18.30;99.90;;;;;;5024773;28;20037;-76
2022/06/30 03:10:18;;;;;;;8.95;4.85;;;18.40;99.90;;;;;;5025649;28;20038;-76
2022/06/30 03:12:44;;;;;;;7.70;4.18;;;18.40;99.90;;;;;;5022367;28;20038;-77
2022/06/30 03:15:11;;;;;;;5.03;4.53;;;18.40;99.90;;;;;;5015541;28;20061;-76
2022/06/30 03:17:37;;;;;;;5.20;4.30;;;18.50;99.90;;;;;;5016550;28;20034;-76
2022/06/30 03:20:03;;;;;;;4.93;4.03;;;18.50;99.90;;;;;;5011019;28;20030;-76
2022/06/30 03:22:30;;;;;;;6.28;4.30;;;18.40;99.90;;;;;;5024467;28;20332;-76
2022/06/30 03:24:56;;;;;;;8.20;3.42;;;18.50;99.90;;;;;;5016341;28;20030;-76
2022/06/30 03:27:22;;;;;;;6.25;4.18;;;18.50;99.90;;;;;;5021509;28;20048;-75
2022/06/30 03:29:48;;;;;;;8.40;4.55;;;18.30;99.90;;;;;;5013845;28;20034;-76
2022/06/30 03:32:14;;;;;;;8.35;4.43;;;18.10;99.90;;;;;;5021063;28;20036;-76
2022/06/30 03:34:41;;;;;;;5.53;4.03;;;18.00;99.90;;;;;;5021331;28;20046;-76
2022/06/30 03:37:07;;;;;;;6.05;4.03;;;18.00;99.90;;;;;;5032206;28;20036;-76
2022/06/30 03:39:33;;;;;;;5.80;3.88;;;18.00;99.90;;;;;;5016251;28;20034;-75
2022/06/30 03:41:59;;;;;;;7.15;4.40;;;17.90;99.90;;;;;;5019231;28;20471;-78
2022/06/30 03:44:25;;;;;;;5.85;4.30;;;17.90;99.90;;;;;;5016981;28;20463;-76
2022/06/30 03:46:52;;;;;;;10.45;5.32;;;17.90;99.90;;;;;;5026177;28;20030;-76
2022/06/30 03:49:18;;;;;;;6.85;4.82;;;17.80;99.90;;;;;;5026137;28;20551;-76
2022/06/30 03:51:44;;;;;;;7.28;4.80;;;17.80;99.90;;;;;;5030741;28;20049;-76
2022/06/30 03:54:11;;;;;;;6.63;5.15;;;17.80;99.90;;;;;;5042841;28;20033;-76
2022/06/30 03:56:37;;;;;;;5.07;4.38;;;17.90;99.90;;;;;;5029298;28;20042;-76
2022/06/30 03:59:03;;;;;;;5.93;4.68;;;17.90;99.90;;;;;;5018839;28;20038;-77
2022/06/30 04:01:29;;;;;;;6.00;3.83;;;18.00;99.90;;;;;;5028024;28;20037;-78
2022/06/30 04:03:55;;;;;;;6.32;4.50;;;18.10;99.90;;;;;;5032260;28;20030;-76
2022/06/30 04:06:23;;;;;;;7.85;3.92;;;18.00;99.90;;;;;;5034317;28;20025;-76
2022/06/30 04:08:49;;;;;;;6.90;4.05;;;18.00;99.90;;;;;;5034452;28;20029;-76
2022/06/30 04:11:15;;;;;;;5.80;4.43;;;18.10;99.90;;;;;;5025932;28;20395;-77
2022/06/30 04:13:41;;;;;;;5.43;4.00;;;18.20;99.90;;;;;;5019232;28;20029;-76
2022/06/30 04:16:08;;;;;;;9.77;4.47;;;18.30;99.90;;;;;;5026400;28;20058;-75
2022/06/30 04:18:34;;;;;;;7.90;4.22;;;18.40;99.90;;;;;;5025700;28;20482;-75
2022/06/30 04:21:00;;;;;;;4.47;3.80;;;18.50;99.90;;;;;;5024519;28;20045;-80
2022/06/30 04:23:26;;;;;;;7.90;4.43;;;18.90;99.90;;;;;;5020062;28;20041;-76
2022/06/30 04:25:52;;;;;;;5.53;3.22;;;20.10;99.90;;;;;;5017077;28;20026;-76
2022/06/30 04:28:19;;;;;;;5.88;3.10;;;21.70;99.90;;;;;;5017924;28;20443;-76
2022/06/30 04:33:30;;;;;;;3.45;2.90;;;23.00;99.90;;;;;;5027463;28;20033;-76
2022/06/30 04:35:56;;;;;;;4.63;3.42;;;22.90;99.90;;;;;;5021006;28;20044;-76
2022/06/30 04:38:22;;;;;;;5.47;3.22;;;23.00;99.90;;;;;;5018037;28;20053;-76
2022/06/30 04:43:33;;;;;;;3.53;2.88;;;24.10;99.90;;;;;;5019356;28;20049;-76
2022/06/30 04:46:00;;;;;;;4.30;3.13;;;24.10;99.90;;;;;;5026803;28;20486;-80
2022/06/30 04:48:26;;;;;;;8.38;3.63;;;24.10;99.90;;;;;;5022018;28;20025;-77
2022/06/30 04:50:52;;;;;;;10.52;2.90;;;23.60;99.90;;;;;;5017588;28;20073;-76
2022/06/30 04:53:18;;;;;;;5.47;3.03;;;23.40;99.90;;;;;;5031769;28;20526;-76
2022/06/30 04:55:44;;;;;;;4.88;3.22;;;24.00;99.90;;;;;;5015198;28;20049;-76
2022/06/30 04:58:11;;;;;;;3.67;2.85;;;25.20;99.70;;;;;;5018759;28;20037;-76
2022/06/30 05:00:37;;;;;;;5.75;2.75;;;26.90;93.90;;;;;;5015029;28;20030;-75
2022/06/30 05:03:03;;;;;;;6.30;2.75;;;27.80;91.10;;;;;;5017149;28;20053;-80
2022/06/30 05:05:29;;;;;;;3.33;2.75;;;27.50;88.80;;;;;;5017586;28;20030;-77
2022/06/30 05:07:56;;;;;;;4.35;3.03;;;27.10;90.40;;;;;;5014280;28;20383;-76
2022/06/30 05:10:22;;;;;;;5.47;2.78;;;26.90;90.90;;;;;;5026283;28;20041;-76
2022/06/30 05:12:48;;;;;;;5.07;3.03;;;26.80;91.00;;;;;;5017518;28;20368;-75
2022/06/30 05:15:14;;;;;;;4.80;3.08;;;26.20;92.10;;;;;;5030897;28;20084;-76
2022/06/30 05:17:41;;;;;;;5.05;3.08;;;26.10;92.40;;;;;;5023710;28;20463;-75
2022/06/30 05:20:07;;;;;;;6.70;3.28;;;26.40;91.60;;;;;;5016860;28;20053;-75
2022/06/30 05:22:34;;;;;;;6.68;3.10;;;27.30;89.70;;;;;;5030743;28;20041;-75
2022/06/30 05:27:46;;;;;;;6.80;3.67;;;29.10;82.90;;;;;;5030807;28;20037;-75
2022/06/30 05:30:13;;;;;;;5.10;2.95;;;30.10;76.40;;;;;;5013978;28;20026;-75
2022/06/30 05:32:40;;;;;;;4.70;2.70;;;30.90;72.80;;;;;;5015105;28;20033;-78
2022/06/30 05:35:07;;;;;;;4.97;2.67;;;31.40;68.70;;;;;;5013443;28;20037;-76
2022/06/30 05:37:33;;;;;;;4.93;2.78;;;29.60;69.10;;;;;;5016538;28;20030;-75
2022/06/30 05:40:00;;;;;;;4.03;2.88;;;28.80;73.30;;;;;;5016485;28;20471;-75
2022/06/30 05:42:26;;;;;;;4.72;3.45;;;28.10;76.10;;;;;;5022162;28;20025;-74
2022/06/30 05:44:52;;;;;;;9.40;3.45;;;27.90;75.60;;;;;;5019861;28;20491;-75
2022/06/30 05:47:18;;;;;;;7.88;3.58;;;27.90;78.30;;;;;;5020798;28;20041;-74
2022/06/30 05:49:44;;;;;;;6.30;3.00;;;27.90;75.90;;;;;;5014601;28;20399;-75
2022/06/30 05:52:11;;;;;;;6.88;3.17;;;27.80;78.80;;;;;;5014831;28;20030;-75
2022/06/30 05:54:37;;;;;;;5.40;3.08;;;28.90;75.70;;;;;;5022274;28;20029;-75
2022/06/30 05:57:04;;;;;;;4.13;2.90;;;29.60;72.10;;;;;;5024016;28;20391;-80
2022/06/30 05:59:32;;;;;;;6.85;3.67;;;30.00;69.70;;;;;;5014131;28;20408;-75
2022/06/30 06:01:59;;;;;;;3.20;2.53;;;29.90;70.90;;;;;;5018445;28;20026;-75
2022/06/30 06:04:26;;;;;;;4.80;2.50;;;29.50;69.20;;;;;;5017601;28;20033;-75
2022/06/30 06:06:52;;;;;;;8.15;3.70;;;29.10;69.60;;;;;;5022062;28;20478;-76
2022/06/30 06:09:18;;;;;;;4.57;3.33;;;28.70;71.70;;;;;;5025586;28;20276;-76
2022/06/30 06:11:44;;;;;;;5.95;3.20;;;28.10;75.00;;;;;;5017112;28;20029;-73
2022/06/30 06:14:11;;;;;;;3.35;2.78;;;28.10;75.60;;;;;;5018496;28;20038;-76
2022/06/30 06:16:37;;;;;;;4.43;2.80;;;28.30;74.60;;;;;;5029690;28;20076;-73
2022/06/30 06:19:03;;;;;;;6.38;3.38;;;28.40;75.10;;;;;;5028196;28;20044;-78
2022/06/30 06:21:29;;;;;;;9.10;3.10;;;27.90;73.90;;;;;;5021068;28;20034;-75
2022/06/30 06:23:55;;;;;;;5.32;2.33;;;27.60;74.80;;;;;;5025721;28;20044;-73
2022/06/30 06:26:22;;;;;;;4.45;2.83;;;27.10;75.60;;;;;;5020626;28;20041;-78
2022/06/30 06:29:06;;;;;;;6.03;2.92;;;27.60;79.00;;;;;;5032382;28;20053;-78
2022/06/30 06:31:34;;;;;;;8.48;2.80;;;28.40;73.10;;;;;;5016016;28;20037;-77
2022/06/30 06:34:01;;;;;;;3.28;2.00;;;28.80;71.90;;;;;;5030264;28;20360;-79
2022/06/30 06:36:28;;;;;;;4.85;2.22;;;27.90;74.60;;;;;;5017942;28;20033;-78
2022/06/30 06:38:54;;;;;;;10.52;2.58;;;28.70;72.60;;;;;;5040884;28;20054;-78
2022/06/30 06:41:21;;;;;;;3.47;2.88;;;29.40;70.60;;;;;;5017850;28;20033;-76
2022/06/30 06:43:51;;;;;;;4.18;2.40;;;29.20;68.30;;;;;;5027056;28;20415;-76
2022/06/30 06:46:18;;;;;;;6.18;3.13;;;28.70;69.80;;;;;;5015476;28;20041;-76
2022/06/30 06:48:44;;;;;;;2.63;2.42;;;27.50;72.40;;;;;;5024650;28;20041;-76
2022/06/30 06:51:10;;;;;;;4.97;2.97;;;27.30;74.30;;;;;;5031671;28;20129;-76
2022/06/30 06:53:37;;;;;;;3.90;2.28;;;27.80;73.20;;;;;;5014509;28;20487;-79
2022/06/30 06:56:05;;;;;;;6.07;2.58;;;28.00;74.30;;;;;;5017799;28;20034;-78
2022/06/30 06:58:31;;;;;;;6.15;2.45;;;28.60;71.60;;;;;;5023366;28;20049;-76
2022/06/30 07:00:58;;;;;;;5.22;2.72;;;28.70;72.40;;;;;;5016552;28;20022;-77
2022/06/30 07:03:24;;;;;;;3.45;2.22;;;29.30;68.90;;;;;;5024806;28;20048;-78
2022/06/30 07:05:50;;;;;;;2.95;2.30;;;29.50;69.10;;;;;;5031664;28;20390;-78
2022/06/30 07:08:17;;;;;;;3.47;2.28;;;30.20;64.40;;;;;;5021227;28;20034;-78
2022/06/30 07:10:43;;;;;;;5.55;2.60;;;30.50;65.70;;;;;;5055473;28;20030;-78
2022/06/30 07:13:09;;;;;;;4.63;2.67;;;31.00;67.40;;;;;;5033129;28;20033;-76
2022/06/30 07:15:35;;;;;;;5.97;2.13;;;31.20;62.40;;;;;;5023678;28;20054;-78
2022/06/30 07:18:03;;;;;;;3.70;2.63;;;30.60;65.90;;;;;;5037893;28;20037;-78
2022/06/30 07:20:30;;;;;;;7.32;4.68;;;31.00;64.90;;;;;;5029615;28;20064;-77
2022/06/30 07:22:56;;;;;;;4.60;3.15;;;31.10;62.30;;;;;;5027970;28;20033;-77
2022/06/30 07:25:22;;;;;;;5.22;3.13;;;31.30;63.00;;;;;;5026903;28;20022;-77
2022/06/30 07:27:48;;;;;;;9.70;3.30;;;31.20;62.30;;;;;;5034207;28;20025;-78
2022/06/30 07:30:15;;;;;;;6.20;3.47;;;29.20;65.40;;;;;;5026160;28;20053;-77
2022/06/30 07:32:41;;;;;;;5.97;2.67;;;29.30;67.00;;;;;;5034840;28;20056;-78
2022/06/30 07:35:07;;;;;;;4.70;2.88;;;29.90;65.30;;;;;;5020883;28;20025;-78
2022/06/30 07:37:38;;;;;;;8.30;3.42;;;30.30;63.80;;;;;;5021566;28;20037;-77
2022/06/30 07:40:06;;;;;;;7.43;3.28;;;30.90;63.50;;;;;;5027015;28;20037;-76
2022/06/30 07:42:33;;;;;;;6.00;2.47;;;31.60;60.10;;;;;;5026471;28;20057;-76
2022/06/30 07:44:59;;;;;;;5.60;3.05;;;30.80;59.90;;;;;;5026617;28;20045;-77
2022/06/30 07:47:26;;;;;;;4.47;2.40;;;31.10;61.80;;;;;;5032868;28;20042;-78
2022/06/30 07:49:52;;;;;;;4.47;3.30;;;31.00;60.80;;;;;;5016938;28;20038;-78
2022/06/30 07:52:18;;;;;;;4.57;3.22;;;31.10;60.40;;;;;;5032160;28;20040;-77
2022/06/30 07:54:44;;;;;;;5.00;2.83;;;30.70;60.90;;;;;;5029295;28;20041;-77
2022/06/30 07:57:12;;;;;;;4.95;2.72;;;30.30;62.80;;;;;;5015705;28;20383;-76
2022/06/30 07:59:39;;;;;;;4.68;3.45;;;31.10;61.00;;;;;;5018064;28;20493;-76
2022/06/30 08:02:06;;;;;;;4.80;2.47;;;31.40;58.40;;;;;;5026903;28;20033;-76
2022/06/30 08:04:33;;;;;;;3.78;2.10;;;31.60;58.70;;;;;;5017159;28;20037;-77
2022/06/30 08:07:01;;;;;;;4.18;2.00;;;32.40;58.00;;;;;;5031349;28;20033;-76
2022/06/30 08:09:28;;;;;;;4.35;1.70;;;32.40;57.10;;;;;;5020182;28;20029;-77
2022/06/30 08:11:54;;;;;;;8.93;3.20;;;32.00;55.40;;;;;;5025494;28;20029;-77
2022/06/30 08:14:23;;;;;;;4.15;2.38;;;30.20;57.60;;;;;;5017928;28;20395;-76
2022/06/30 08:16:50;;;;;;;5.93;2.53;;;30.20;59.20;;;;;;5021851;28;20510;-76
2022/06/30 08:19:19;;;;;;;3.92;2.50;;;30.20;59.20;;;;;;5022194;28;20046;-77
2022/06/30 08:21:46;;;;;;;4.60;2.58;;;29.90;59.70;;;;;;5020616;28;20029;-77
2022/06/30 08:24:13;;;;;;;5.47;2.72;;;30.30;59.80;;;;;;5020971;28;20034;-78
2022/06/30 08:26:39;;;;;;;5.07;2.40;;;30.40;59.60;;;;;;5046163;28;20042;-77
2022/06/30 08:29:06;;;;;;;3.97;1.90;;;30.00;60.20;;;;;;5015242;28;20565;-77
2022/06/30 08:31:33;;;;;;;4.20;2.05;;;29.50;63.30;;;;;;5023655;28;20034;-76
2022/06/30 08:34:00;;;;;;;3.50;2.15;;;29.50;61.30;;;;;;5025896;28;20045;-78
2022/06/30 08:36:26;;;;;;;4.43;2.42;;;29.00;63.80;;;;;;5031607;28;20033;-77
2022/06/30 08:38:53;;;;;;;6.80;2.50;;;30.40;65.60;;;;;;5029940;28;20375;-77
2022/06/30 08:44:05;;;;;;;7.28;1.50;;;31.70;54.40;;;;;;5014966;28;20041;-77
2022/06/30 08:46:33;;;;;;;2.17;1.52;;;31.80;54.70;;;;;;5025845;28;20042;-77
2022/06/30 08:49:00;;;;;;;7.57;1.98;;;32.10;54.70;;;;;;5015476;28;20463;-77
2022/06/30 08:51:29;;;;;;;5.97;1.90;;;32.10;52.60;;;;;;5016176;28;20033;-74
2022/06/30 08:54:00;;;;;;;2.83;2.08;;;31.80;52.30;;;;;;5019637;28;20455;-77
2022/06/30 08:56:34;;;;;;;4.97;1.30;;;30.90;54.90;;;;;;5019237;28;20034;-78
2022/06/30 08:59:04;;;;;;;4.68;1.70;;;31.30;55.10;;;;;;5014199;28;20068;-79
2022/06/30 09:01:31;;;;;;;3.72;1.58;;;32.00;54.60;;;;;;5023012;28;20474;-77
2022/06/30 09:03:57;;;;;;;3.72;1.52;;;32.60;54.50;;;;;;5027177;28;20029;-77
2022/06/30 09:06:24;;;;;;;2.40;1.90;;;32.10;54.20;;;;;;5017590;28;20041;-76
2022/06/30 09:08:50;;;;;;;7.32;2.40;;;32.40;55.00;;;;;;5015547;28;20420;-78
2022/06/30 09:11:17;;;;;;;3.53;1.35;;;32.70;52.60;;;;;;5019379;28;20034;-75
2022/06/30 09:13:47;;;;;;;2.88;1.20;;;32.40;53.80;;;;;;5021544;28;20030;-76
2022/06/30 09:16:14;;;;;;;6.03;1.73;;;33.00;52.00;;;;;;5019287;28;20061;-76
2022/06/30 09:18:41;;;;;;;5.78;1.52;;;31.60;52.80;;;;;;5019780;28;21623;-76
2022/06/30 09:21:14;;;;;;;4.65;1.40;;;30.40;55.40;;;;;;5017150;28;20037;-76
2022/06/30 09:23:43;;;;;;;4.18;1.77;;;30.80;55.90;;;;;;5029101;28;20026;-78
2022/06/30 09:26:14;;;;;;;;;;;30.80;56.50;;;;;;5013394;28;20030;-77
2022/06/30 09:28:54;;;;;;;5.47;1.92;;;31.60;53.40;;;;;;5020602;28;19909;-78
2022/06/30 09:31:35;;;;;;;3.85;1.52;;;31.40;53.20;;;;;;5018934;28;20029;-77
2022/06/30 09:34:19;;;;;;;4.18;1.40;;;31.50;53.50;;;;;;5022135;28;20041;-79
2022/06/30 09:36:47;;;;;;;2.15;1.15;;;31.30;52.80;;;;;;5014311;28;20391;-77
2022/06/30 09:39:15;;;;;;;3.60;2.00;;;31.50;54.10;;;;;;5020285;28;20053;-78
2022/06/30 09:41:43;;;;;;;2.30;1.67;;;32.30;54.00;;;;;;5022172;28;20040;-78
2022/06/30 09:44:24;;;;;;;3.38;1.50;;;32.70;52.20;;;;;;5023440;28;20042;-78
2022/06/30 09:47:10;;;;;;;3.92;1.77;;;32.00;53.00;;;;;;5024183;28;20037;-79
2022/06/30 09:49:42;;;;;;;3.10;1.58;;;31.20;52.90;;;;;;5015947;28;20044;-79
2022/06/30 09:52:23;;;;;;;4.82;1.63;;;29.70;53.50;;;;;;5014748;28;20440;-78
2022/06/30 09:54:55;;;;;;;2.95;1.58;;;29.00;53.80;;;;;;5035268;28;20056;-77
2022/06/30 09:57:24;;;;;;;4.40;1.55;;;28.80;54.70;;;;;;5017198;28;20030;-78
2022/06/30 10:00:09;;;;;;;9.68;1.77;;;28.90;55.60;;;;;;5013275;28;20148;-77
2022/06/30 10:02:41;;;;;;;3.53;1.50;;;29.20;54.10;;;;;;5024191;28;20034;-76
2022/06/30 10:05:09;;;;;;;3.00;1.60;;;28.80;54.30;;;;;;5029837;28;20041;-77
2022/06/30 10:07:37;;;;;;;2.47;1.50;;;29.00;54.10;;;;;;5018541;28;20051;-76
2022/06/30 10:10:11;;;;;;;4.93;1.65;;;29.90;52.40;;;;;;5028156;28;20048;-77
2022/06/30 10:12:40;;;;;;;2.90;1.33;;;30.10;52.50;;;;;;5023224;28;20034;-77
2022/06/30 10:15:08;;;;;;;2.17;1.40;;;29.90;50.60;;;;;;5034858;28;20502;-77
2022/06/30 10:17:37;;;;;;;3.53;1.17;;;30.20;52.30;;;;;;5025187;28;20287;-74
2022/06/30 10:20:05;;;;;;;3.25;0.98;;;30.70;49.80;;;;;;5027665;28;20041;-76
2022/06/30 10:22:31;;;;;;;3.35;1.52;;;31.00;49.50;;;;;;5027686;28;20026;-75
2022/06/30 10:24:58;;;;;;;2.30;1.30;;;31.00;49.50;;;;;;5039660;28;20045;-75
2022/06/30 10:27:26;;;;;;;2.08;1.02;;;30.90;50.20;;;;;;5029845;28;20030;-78
2022/06/30 10:29:56;;;;;;;1.63;1.10;;;30.60;48.90;;;;;;5014433;28;20391;-77
2022/06/30 10:32:46;;;;;;;2.22;1.00;;;30.50;49.40;;;;;;5021828;28;20040;-77
2022/06/30 10:35:33;;;;;;;2.40;1.27;;;30.30;49.60;;;;;;5017584;28;20034;-76
2022/06/30 10:38:08;;;;;;;1.77;1.23;;;30.60;49.90;;;;;;5027297;28;20029;-75
2022/06/30 10:40:43;;;;;;;1.30;0.95;;;30.80;47.90;;;;;;5026807;28;20029;-75
2022/06/30 10:43:10;;;;;;;1.38;1.08;;;30.40;48.20;;;;;;5026233;28;20038;-75
2022/06/30 10:45:54;;;;;;;2.28;1.10;;;30.20;48.40;;;;;;5030082;28;20048;-78
2022/06/30 10:48:21;;;;;;;4.20;1.40;;;30.10;48.50;;;;;;5026435;28;20038;-76
2022/06/30 10:50:49;;;;;;;1.50;1.40;;;30.00;48.10;;;;;;5016369;28;20041;-75
2022/06/30 10:53:21;;;;;;;3.33;1.27;;;29.90;49.30;;;;;;5018502;28;20026;-75
2022/06/30 10:55:50;;;;;;;2.88;1.45;;;30.10;48.30;;;;;;5029234;28;20030;-75
2022/06/30 10:58:17;;;;;;;2.38;0.90;;;30.10;48.60;;;;;;5017937;28;20030;-76
2022/06/30 11:00:50;;;;;;;2.97;1.52;;;30.30;48.60;;;;;;5019158;28;20053;-76
2022/06/30 11:03:34;;;;;;;2.25;1.50;;;30.50;50.60;;;;;;5043894;28;20041;-75
2022/06/30 11:06:05;;;;;;;3.10;1.40;;;30.80;49.70;;;;;;5031042;28;20050;-75
2022/06/30 11:11:22;;;;;;;2.83;1.50;;;31.10;48.00;;;;;;5026266;28;20042;-78
2022/06/30 11:13:50;;;;;;;2.35;1.50;;;30.50;47.80;;;;;;5020006;28;20487;-75
2022/06/30 11:16:20;;;;;;;2.97;1.38;;;30.70;49.80;;;;;;5033664;28;20053;-75
2022/06/30 11:18:46;;;;;;;1.90;0.85;;;30.80;46.90;;;;;;5027403;28;20037;-74
2022/06/30 11:21:13;;;;;;;2.38;1.17;;;31.10;46.60;;;;;;5042628;28;20049;-74
2022/06/30 11:23:39;;;;;;;1.70;1.00;;;30.70;46.70;;;;;;5027681;28;20415;-74
2022/06/30 11:28:53;;;;;;;3.13;1.00;;;30.90;45.90;;;;;;5023365;28;20037;-74
2022/06/30 11:31:34;;;;;;;4.93;1.63;;;31.00;47.20;;;;;;5020796;28;20030;-75
2022/06/30 11:34:07;;;;;;;3.10;1.60;;;31.20;48.90;;;;;;5034407;28;20069;-75
2022/06/30 11:36:34;;;;;;;2.05;1.08;;;31.00;47.20;;;;;;5038217;28;20049;-75
2022/06/30 11:39:06;;;;;;;4.63;1.58;;;30.80;49.00;;;;;;5026835;28;20056;-75
2022/06/30 11:44:20;;;;;;;2.60;1.20;;;31.50;46.70;;;;;;5025900;28;20060;-74
2022/06/30 11:47:06;;;;;;;2.22;1.17;;;31.00;47.10;;;;;;5045174;28;20045;-75
2022/06/30 11:49:41;;;;;;;3.95;1.25;;;31.10;47.30;;;;;;5027704;28;20398;-74
2022/06/30 11:52:22;;;;;;;2.78;1.20;;;30.80;47.20;;;;;;5029996;28;20030;-76
2022/06/30 11:54:56;;;;;;;2.70;1.50;;;31.00;46.60;;;;;;5049799;28;20052;-75
2022/06/30 11:57:27;;;;;;;1.80;1.38;;;31.00;47.40;;;;;;5032963;28;20029;-76
2022/06/30 12:00:00;;;;;;;2.97;1.50;;;31.60;49.10;;;;;;5030362;28;20045;-77
2022/06/30 12:02:27;;;;;;;3.35;1.15;;;32.00;48.00;;;;;;5021352;28;20459;-75
2022/06/30 12:04:55;;;;;;;3.80;1.58;;;31.90;48.30;;;;;;5019132;28;20379;-76
2022/06/30 12:07:23;;;;;;;3.03;1.33;;;31.70;46.70;;;;;;5015165;28;20030;-76
2022/06/30 12:09:50;;;;;;;2.80;1.67;;;30.80;47.10;;;;;;5014524;28;20033;-75
2022/06/30 12:12:26;;;;;;;3.22;1.00;;;30.50;49.00;;;;;;5027040;28;20041;-76
2022/06/30 12:14:55;;;;;;;3.10;1.23;;;30.90;47.80;;;;;;5028636;28;20038;-76
2022/06/30 12:17:21;;;;;;;3.03;1.10;;;31.20;46.60;;;;;;5031984;28;20410;-75
2022/06/30 12:19:48;;;;;;;5.07;1.95;;;31.00;47.10;;;;;;5026690;28;20044;-75
2022/06/30 12:22:14;;;;;;;5.32;1.50;;;30.90;47.80;;;;;;5019600;28;20025;-75
2022/06/30 12:24:44;;;;;;;2.38;1.55;;;31.00;46.90;;;;;;5027788;28;20048;-76
2022/06/30 12:27:23;;;;;;;;;;;31.20;47.50;;;;;;5041420;28;20041;-76
2022/06/30 12:29:56;;;;;;;5.13;1.70;;;31.00;46.50;;;;;;5025645;28;19930;-76
2022/06/30 12:32:22;;;;;;;3.08;1.17;;;30.70;47.20;;;;;;5035511;28;20040;-75
2022/06/30 12:34:53;;;;;;;5.05;1.50;;;30.90;47.30;;;;;;5022291;28;20046;-75
2022/06/30 12:37:37;;;;;;;3.28;1.15;;;31.10;47.10;;;;;;5026916;28;20049;-76
2022/06/30 12:40:07;;;;;;;4.97;1.52;;;30.90;46.70;;;;;;5028808;28;20053;-75
2022/06/30 12:42:49;;;;;;;3.55;1.73;;;31.20;46.80;;;;;;5017590;28;20034;-75
2022/06/30 12:45:52;;;;;;;2.97;1.45;;;31.20;47.50;;;;;;5026335;28;20049;-75
2022/06/30 12:48:46;;;;;;;6.18;1.60;;;31.00;47.00;;;;;;5025923;28;20030;-76
2022/06/30 12:51:32;;;;;;;3.20;1.23;;;31.20;47.10;;;;;;5014470;28;20038;-77
2022/06/30 12:54:09;;;;;;;2.03;1.30;;;31.80;48.70;;;;;;5017433;28;20061;-76
2022/06/30 12:56:38;;;;;;;3.50;1.35;;;32.10;46.80;;;;;;5018528;28;20033;-76
2022/06/30 12:59:16;;;;;;;2.33;1.42;;;32.30;46.60;;;;;;5026421;28;20041;-75
2022/06/30 13:01:53;;;;;;;4.20;1.43;;;32.60;46.20;;;;;;5018509;28;20042;-75
2022/06/30 13:04:30;;;;;;;5.95;1.77;;;32.20;46.20;;;;;;5015684;28;20026;-77
2022/06/30 13:06:58;;;;;;;2.75;1.38;;;31.80;47.00;;;;;;5018751;28;20030;-76
2022/06/30 13:09:27;;;;;;;2.47;1.75;;;31.60;48.60;;;;;;5012362;28;20037;-76
2022/06/30 13:11:57;;;;;;;2.60;1.45;;;32.00;48.20;;;;;;5027101;28;20355;-75
2022/06/30 13:14:26;;;;;;;4.25;1.90;;;32.20;47.10;;;;;;5019156;28;20455;-75
2022/06/30 13:16:54;;;;;;;2.17;1.42;;;32.50;47.10;;;;;;5032910;28;20045;-75
2022/06/30 13:19:20;;;;;;;2.20;1.48;;;32.60;47.40;;;;;;5022182;28;20045;-78